Time;durP1;ratioP1;P1;durP2;ratioP2;P2;SDS_P1;SDS_P2;PMS_P1;PMS_P2;Temp;Humidity;BMP_temperature;BMP_pressure;BME280_temperature;BME280_humidity;BME280_pressure;Samples;Min_cycle;Max_cycle;Signal;HPM_P1;HPM_P2
2022/01/24 00:01:15;;;;;;;1.25;0.28;;;;;;;;;;5053227;28;20104;-74
2022/01/24 00:03:42;;;;;;;1.23;0.30;;;;;;;;;;5053446;28;20027;-73
2022/01/24 00:06:13;;;;;;;3.78;0.70;;;;;;;;;;5052855;28;20049;-75
2022/01/24 00:08:40;;;;;;;4.65;0.40;;;;;;;;;;5052077;28;20021;-75
2022/01/24 00:11:15;;;;;;;2.38;0.50;;;;;;;;;;5053297;28;20025;-74
2022/01/24 00:27:18;;;;;;;1.42;0.38;;;;;;;;;;5053082;28;20446;-74
2022/01/24 00:29:46;;;;;;;1.80;0.32;;;;;;;;;;5051693;28;20474;-74
2022/01/24 00:32:13;;;;;;;1.63;0.10;;;;;;;;;;5051564;28;20032;-74
2022/01/24 00:34:40;;;;;;;2.15;0.20;;;;;;;;;;5052865;28;20025;-74
2022/01/24 00:37:08;;;;;;;1.30;0.32;;;;;;;;;;5052863;28;20397;-73
2022/01/24 00:39:35;;;;;;;2.22;0.35;;;;;;;;;;5051547;28;20116;-74
2022/01/24 00:42:31;;;;;;;1.92;0.40;;;;;;;;;;5051304;28;20463;-73
2022/01/24 00:45:08;;;;;;;1.52;0.20;;;;;;;;;;5051651;28;20017;-73
2022/01/24 00:53:30;;;;;;;1.98;0.10;;;;;;;;;;5052981;28;20154;-73
2022/01/24 00:55:58;;;;;;;3.42;0.77;;;;;;;;;;5051363;28;20020;-73
2022/01/24 00:58:25;;;;;;;0.82;0.20;;;;;;;;;;5052627;28;20029;-73
2022/01/24 01:00:53;;;;;;;3.83;0.43;;;;;;;;;;5052454;28;20029;-73
2022/01/24 01:03:20;;;;;;;1.45;0.20;;;;;;;;;;5050880;28;20036;-73
2022/01/24 01:06:07;;;;;;;2.30;0.30;;;;;;;;;;5051243;28;20041;-74
2022/01/24 01:19:37;;;;;;;2.08;0.40;;;;;;;;;;5056815;28;20047;-74
2022/01/24 01:22:05;;;;;;;1.17;0.25;;;;;;;;;;5054999;28;20033;-73
2022/01/24 01:24:37;;;;;;;1.67;0.20;;;;;;;;;;5056476;28;20051;-74
2022/01/24 01:27:14;;;;;;;1.88;0.22;;;;;;;;;;5056401;28;20045;-74
2022/01/24 01:29:54;;;;;;;2.45;0.57;;;;;;;;;;5055020;28;20025;-73
2022/01/24 01:38:05;;;;;;;2.38;0.35;;;;;;;;;;5056150;28;20482;-75
2022/01/24 01:56:39;;;;;;;1.88;0.45;;;;;;;;;;5055966;28;20021;-74
2022/01/24 01:59:06;;;;;;;1.40;0.40;;;;;;;;;;5055764;28;20389;-73
2022/01/24 02:01:33;;;;;;;1.42;0.22;;;;;;;;;;5055799;28;20025;-73
2022/01/24 02:04:03;;;;;;;2.25;0.40;;;;;;;;;;5055372;28;20481;-74
2022/01/24 02:06:31;;;;;;;0.75;0.10;;;;;;;;;;5055759;28;20436;-73
2022/01/24 02:08:59;;;;;;;2.60;0.30;;;;;;;;;;5055568;28;20104;-74
2022/01/24 02:11:26;;;;;;;3.47;0.45;;;;;;;;;;5055446;28;20028;-74
2022/01/24 02:13:58;;;;;;;2.75;0.40;;;;;;;;;;5055394;28;20395;-74
2022/01/24 02:16:39;;;;;;;2.03;0.50;;;;;;;;;;5055486;28;20025;-74
2022/01/24 02:19:28;;;;;;;1.33;0.13;;;;;;;;;;5055384;28;20078;-75
2022/01/24 02:24:52;;;;;;;3.47;0.30;;;;;;;;;;5055328;28;20051;-74
2022/01/24 02:27:22;;;;;;;1.75;0.40;;;;;;;;;;5054121;28;20017;-71
2022/01/24 02:29:56;;;;;;;1.85;0.40;;;;;;;;;;5055377;28;20385;-72
2022/01/24 02:32:23;;;;;;;1.40;0.40;;;;;;;;;;5053947;28;20091;-73
2022/01/24 02:34:50;;;;;;;2.33;0.25;;;;;;;;;;5053839;28;20025;-73
2022/01/24 02:37:20;;;;;;;2.00;0.38;;;;;;;;;;5055065;28;20397;-74
2022/01/24 02:39:56;;;;;;;1.13;0.20;;;;;;;;;;5055011;28;20021;-73
2022/01/24 02:53:29;;;;;;;1.08;0.30;;;;;;;;;;5055101;28;20494;-73
2022/01/24 02:55:56;;;;;;;0.80;0.20;;;;;;;;;;5054797;28;20075;-76
2022/01/24 02:58:25;;;;;;;;;;;;;;;;;;5055094;28;20551;-75
2022/01/24 03:00:53;;;;;;;1.77;0.40;;;;;;;;;;5054686;28;19905;-75
2022/01/24 03:03:20;;;;;;;1.45;0.17;;;;;;;;;;5054554;28;20039;-75
2022/01/24 03:05:47;;;;;;;1.02;0.38;;;;;;;;;;5054391;28;20041;-75
2022/01/24 03:08:15;;;;;;;2.85;0.30;;;;;;;;;;5054600;28;20058;-75
2022/01/24 03:10:46;;;;;;;1.35;0.30;;;;;;;;;;5053219;28;20017;-74
2022/01/24 03:15:45;;;;;;;1.58;0.35;;;;;;;;;;5054350;28;20036;-72
2022/01/24 03:18:12;;;;;;;4.45;0.60;;;;;;;;;;5054353;28;20029;-74
2022/01/24 03:20:40;;;;;;;4.50;0.70;;;;;;;;;;5054247;28;20025;-75
2022/01/24 03:23:07;;;;;;;1.60;0.50;;;;;;;;;;5053998;28;20371;-74
2022/01/24 03:25:34;;;;;;;3.60;0.70;;;;;;;;;;5052655;28;20074;-74
2022/01/24 03:28:03;;;;;;;2.15;0.30;;;;;;;;;;5052999;28;20022;-74
2022/01/24 03:30:31;;;;;;;3.03;0.40;;;;;;;;;;5054060;28;20389;-74
2022/01/24 03:32:58;;;;;;;2.15;0.50;;;;;;;;;;5054138;28;20043;-76
2022/01/24 03:35:25;;;;;;;1.65;0.40;;;;;;;;;;5052719;28;20040;-75
2022/01/24 03:37:52;;;;;;;2.42;0.32;;;;;;;;;;5054153;28;20051;-75
2022/01/24 03:40:19;;;;;;;1.98;0.50;;;;;;;;;;5052132;28;20091;-76
2022/01/24 03:42:49;;;;;;;;;;;;;;;;;;5054132;28;20187;-76
2022/01/24 03:45:24;;;;;;;5.13;0.75;;;;;;;;;;5053842;28;19904;-76
2022/01/24 03:48:10;;;;;;;3.58;0.43;;;;;;;;;;5052417;28;20074;-74
2022/01/24 03:50:37;;;;;;;2.10;0.40;;;;;;;;;;5052548;28;20017;-75
2022/01/24 03:53:05;;;;;;;2.08;0.30;;;;;;;;;;5053726;28;20052;-75
2022/01/24 03:55:33;;;;;;;2.97;0.50;;;;;;;;;;5052476;28;20053;-75
2022/01/24 03:58:00;;;;;;;2.33;0.38;;;;;;;;;;5053471;28;20052;-75
2022/01/24 04:00:28;;;;;;;1.92;0.30;;;;;;;;;;5053447;28;20036;-75
2022/01/24 04:02:55;;;;;;;1.95;0.35;;;;;;;;;;5052031;28;20037;-75
2022/01/24 04:05:22;;;;;;;2.38;0.30;;;;;;;;;;5052735;28;20049;-73
2022/01/24 04:07:49;;;;;;;2.40;0.40;;;;;;;;;;5051241;28;20023;-74
2022/01/24 04:10:19;;;;;;;2.88;0.50;;;;;;;;;;5052596;28;20056;-74
2022/01/24 04:12:49;;;;;;;2.78;0.63;;;;;;;;;;5051536;28;20187;-74
2022/01/24 04:15:35;;;;;;;1.80;0.38;;;;;;;;;;5052470;28;20025;-76
2022/01/24 04:23:34;;;;;;;2.15;0.40;;;;;;;;;;5052342;28;20033;-75
2022/01/24 04:26:01;;;;;;;2.05;0.57;;;;;;;;;;5052392;28;20024;-74
2022/01/24 04:28:29;;;;;;;3.10;0.43;;;;;;;;;;5052164;28;20020;-75
2022/01/24 04:30:56;;;;;;;3.65;0.50;;;;;;;;;;5052292;28;20097;-75
2022/01/24 04:33:23;;;;;;;3.40;0.75;;;;;;;;;;5050889;28;20036;-74
2022/01/24 04:35:50;;;;;;;2.58;0.98;;;;;;;;;;5050996;28;20402;-74
2022/01/24 04:38:17;;;;;;;4.07;0.60;;;;;;;;;;5052433;28;20021;-76
2022/01/24 04:40:44;;;;;;;1.65;0.30;;;;;;;;;;5052209;28;20482;-75
2022/01/24 04:51:51;;;;;;;2.33;0.60;;;;;;;;;;5051266;28;20082;-75
2022/01/24 04:56:58;;;;;;;3.97;0.60;;;;;;;;;;5051977;28;20024;-76
2022/01/24 04:59:25;;;;;;;2.90;0.50;;;;;;;;;;5050538;28;20039;-75
2022/01/24 05:01:52;;;;;;;2.35;0.43;;;;;;;;;;5051922;28;20029;-75
2022/01/24 05:04:19;;;;;;;2.35;0.50;;;;;;;;;;4936642;28;3255841;-75
2022/01/24 05:06:47;;;;;;;3.35;0.60;;;;;;;;;;5051448;28;20051;-74
2022/01/24 05:09:14;;;;;;;2.88;0.50;;;;;;;;;;5052719;28;20021;-75
2022/01/24 05:12:07;;;;;;;4.20;0.73;;;;;;;;;;5051360;28;20029;-75
2022/01/24 05:25:29;;;;;;;2.40;0.47;;;;;;;;;;5052614;28;20036;-73
2022/01/24 05:27:56;;;;;;;3.00;0.50;;;;;;;;;;5052520;28;20385;-75
2022/01/24 05:30:23;;;;;;;5.53;0.73;;;;;;;;;;5052540;28;20025;-75
2022/01/24 05:32:50;;;;;;;2.88;0.52;;;;;;;;;;5051258;28;20025;-74
2022/01/24 05:35:17;;;;;;;4.55;0.60;;;;;;;;;;5051020;28;20052;-75
2022/01/24 05:37:45;;;;;;;2.15;0.40;;;;;;;;;;5051116;28;20451;-75
2022/01/24 05:40:12;;;;;;;3.63;0.80;;;;;;;;;;5052257;28;20025;-75
2022/01/24 05:42:39;;;;;;;4.35;0.70;;;;;;;;;;5050923;28;20029;-75
2022/01/24 05:45:07;;;;;;;6.60;0.80;;;;;;;;;;5052241;28;20021;-75
2022/01/24 05:47:34;;;;;;;1.48;0.40;;;;;;;;;;5052200;28;20048;-75
2022/01/24 05:50:02;;;;;;;4.43;1.15;;;;;;;;;;5050941;28;20021;-75
2022/01/24 05:52:29;;;;;;;4.68;0.73;;;;;;;;;;5052311;28;20029;-76
2022/01/24 05:54:56;;;;;;;2.25;0.50;;;;;;;;;;5052094;28;20520;-75
2022/01/24 05:57:23;;;;;;;3.83;0.60;;;;;;;;;;5052265;28;20029;-75
2022/01/24 05:59:50;;;;;;;3.55;0.80;;;;;;;;;;5050629;28;20087;-74
2022/01/24 06:02:18;;;;;;;2.63;0.70;;;;;;;;;;5050822;28;20111;-75
2022/01/24 06:04:45;;;;;;;3.50;0.60;;;;;;;;;;5055335;28;20074;-75
2022/01/24 06:07:12;;;;;;;2.42;0.55;;;;;;;;;;5056016;28;20021;-74
2022/01/24 06:09:39;;;;;;;2.33;0.65;;;;;;;;;;5055826;28;20024;-75
2022/01/24 06:12:07;;;;;;;3.47;0.50;;;;;;;;;;5055614;28;20021;-76
2022/01/24 06:14:34;;;;;;;3.30;0.75;;;;;;;;;;5055609;28;20028;-75
2022/01/24 06:17:01;;;;;;;4.07;0.80;;;;;;;;;;5055641;28;20413;-75
2022/01/24 06:19:28;;;;;;;1.92;0.60;;;;;;;;;;5055444;28;20017;-74
2022/01/24 06:21:56;;;;;;;2.40;0.47;;;;;;;;;;5053995;28;20029;-75
2022/01/24 06:24:23;;;;;;;3.38;0.70;;;;;;;;;;5055487;28;20024;-75
2022/01/24 06:26:50;;;;;;;3.72;0.82;;;;;;;;;;5053993;28;20436;-75
2022/01/24 06:29:18;;;;;;;3.33;0.60;;;;;;;;;;5055307;28;20021;-75
2022/01/24 06:31:45;;;;;;;3.17;0.65;;;;;;;;;;5055186;28;20428;-74
2022/01/24 06:34:13;;;;;;;4.25;0.88;;;;;;;;;;5055241;28;20108;-76
2022/01/24 06:36:40;;;;;;;2.90;0.70;;;;;;;;;;5055015;28;20083;-74
2022/01/24 06:39:10;;;;;;;4.03;0.75;;;;;;;;;;5055094;28;20025;-73
2022/01/24 06:41:37;;;;;;;4.00;0.60;;;;;;;;;;5053861;28;20036;-74
2022/01/24 06:44:04;;;;;;;4.22;0.68;;;;;;;;;;5054991;28;20091;-74
2022/01/24 06:46:31;;;;;;;4.70;0.70;;;;;;;;;;5053592;28;20108;-73
2022/01/24 06:48:59;;;;;;;3.78;0.50;;;;;;;;;;5054858;28;20021;-74
2022/01/24 06:51:26;;;;;;;3.22;0.85;;;;;;;;;;5054721;28;20074;-73
2022/01/24 06:53:53;;;;;;;4.55;0.68;;;;;;;;;;5054841;28;20025;-73
2022/01/24 06:56:21;;;;;;;2.55;0.90;;;;;;;;;;5054629;28;20389;-75
2022/01/24 06:58:48;;;;;;;3.40;0.60;;;;;;;;;;5054718;28;20367;-74
2022/01/24 07:01:15;;;;;;;2.80;0.60;;;;;;;;;;5054480;28;20048;-73
2022/01/24 07:03:42;;;;;;;4.13;0.70;;;;;;;;;;5054514;28;20032;-74
2022/01/24 07:06:09;;;;;;;2.92;0.55;;;;;;;;;;5054357;28;20410;-74
2022/01/24 07:08:36;;;;;;;2.90;0.60;;;;;;;;;;5054588;28;20458;-74
2022/01/24 07:11:04;;;;;;;2.75;0.80;;;;;;;;;;5054583;28;20075;-75
2022/01/24 07:13:31;;;;;;;4.57;0.80;;;;;;;;;;5054696;28;20025;-77
2022/01/24 07:16:04;;;;;;;2.63;0.52;;;;;;;;;;5052837;28;20029;-77
2022/01/24 07:21:00;;;;;;;3.88;0.95;;;;;;;;;;5054436;28;20033;-75
2022/01/24 07:23:27;;;;;;;4.88;0.90;;;;;;;;;;5052952;28;20071;-76
2022/01/24 07:25:55;;;;;;;4.45;0.75;;;;;;;;;;5053500;28;20478;-76
2022/01/24 07:28:22;;;;;;;4.90;1.00;;;;;;;;;;5052829;28;20024;-75
2022/01/24 07:30:49;;;;;;;6.18;0.82;;;;;;;;;;5052978;28;20021;-75
2022/01/24 07:33:16;;;;;;;4.90;0.95;;;;;;;;;;5054114;28;20029;-77
2022/01/24 07:35:45;;;;;;;6.80;0.93;;;;;;;;;;5052849;28;20032;-76
2022/01/24 07:38:12;;;;;;;5.10;0.90;;;;;;;;;;5052666;28;20021;-75
2022/01/24 07:40:42;;;;;;;4.05;1.10;;;;;;;;;;5053069;28;20025;-77
2022/01/24 07:43:13;;;;;;;4.07;0.80;;;;;;;;;;5052396;28;20027;-76
2022/01/24 07:45:39;;;;;;;;;;;;;;;;;;5052887;28;20107;-76
2022/01/24 07:48:07;;;;;;;5.88;1.20;;;;;;;;;;5052208;28;19904;-77
2022/01/24 07:50:37;;;;;;;6.15;1.05;;;;;;;;;;5052445;28;20017;-76
2022/01/24 07:53:04;;;;;;;5.60;0.98;;;;;;;;;;5053638;28;20399;-76
2022/01/24 07:55:33;;;;;;;4.78;1.08;;;;;;;;;;5053542;28;20096;-76
2022/01/24 07:58:00;;;;;;;7.53;1.67;;;;;;;;;;5052275;28;20075;-77
2022/01/24 08:00:27;;;;;;;4.03;0.90;;;;;;;;;;5052251;28;20033;-76
2022/01/24 08:02:57;;;;;;;8.13;0.95;;;;;;;;;;5052032;28;20044;-76
2022/01/24 08:05:24;;;;;;;5.32;0.80;;;;;;;;;;5053297;28;20429;-77
2022/01/24 08:07:52;;;;;;;6.00;1.48;;;;;;;;;;5053609;28;20024;-76
2022/01/24 08:10:19;;;;;;;6.07;1.17;;;;;;;;;;5053576;28;20489;-76
2022/01/24 08:12:46;;;;;;;5.28;1.17;;;;;;;;;;5053360;28;20060;-77
2022/01/24 08:15:17;;;;;;;6.70;1.50;;;;;;;;;;5053349;28;20029;-75
2022/01/24 08:17:47;;;;;;;7.80;1.48;;;;;;;;;;5053603;28;20096;-77
2022/01/24 08:20:15;;;;;;;4.28;1.15;;;;;;;;;;5052233;28;20031;-77
2022/01/24 08:22:42;;;;;;;5.05;0.75;;;;;;;;;;5053235;28;20043;-76
2022/01/24 08:25:10;;;;;;;6.35;1.30;;;;;;;;;;5052043;28;20107;-77
2022/01/24 08:27:38;;;;;;;6.00;1.10;;;;;;;;;;5053078;28;20027;-77
2022/01/24 08:30:10;;;;;;;8.07;1.55;;;;;;;;;;5051949;28;20111;-76
2022/01/24 08:32:37;;;;;;;7.65;1.00;;;;;;;;;;5053819;28;20108;-76
2022/01/24 08:35:05;;;;;;;5.32;0.85;;;;;;;;;;5053454;28;20423;-77
2022/01/24 08:37:32;;;;;;;9.80;1.27;;;;;;;;;;5053740;28;20047;-76
2022/01/24 08:40:00;;;;;;;6.03;1.13;;;;;;;;;;5051755;28;20036;-76
2022/01/24 08:45:46;;;;;;;6.10;1.20;;;;;;;;;;5056904;28;20029;-75
2022/01/24 08:48:14;;;;;;;5.28;1.50;;;;;;;;;;5051782;28;20021;-75
2022/01/24 08:50:42;;;;;;;5.63;1.00;;;;;;;;;;5053229;28;20477;-75
2022/01/24 08:53:10;;;;;;;4.43;1.13;;;;;;;;;;5053147;28;20055;-76
2022/01/24 08:55:38;;;;;;;6.20;1.65;;;;;;;;;;5053145;28;20417;-76
2022/01/24 08:58:06;;;;;;;8.73;1.13;;;;;;;;;;5053542;28;20032;-78
2022/01/24 09:00:33;;;;;;;6.57;1.50;;;;;;;;;;5053926;28;20025;-77
2022/01/24 09:03:00;;;;;;;5.18;1.27;;;;;;;;;;5052367;28;20079;-77
2022/01/24 09:05:34;;;;;;;4.57;1.17;;;;;;;;;;5053093;28;20051;-77
2022/01/24 09:08:01;;;;;;;4.53;0.80;;;;;;;;;;5053387;28;20017;-76
2022/01/24 09:10:28;;;;;;;5.05;0.90;;;;;;;;;;5051959;28;20016;-76
2022/01/24 09:12:55;;;;;;;5.25;1.00;;;;;;;;;;5053220;28;20018;-76
2022/01/24 09:15:22;;;;;;;6.75;1.20;;;;;;;;;;5052768;28;20022;-76
2022/01/24 09:17:50;;;;;;;3.85;1.00;;;;;;;;;;5051550;28;20397;-75
2022/01/24 09:20:17;;;;;;;6.85;1.42;;;;;;;;;;5052588;28;20029;-74
2022/01/24 09:22:46;;;;;;;5.68;1.10;;;;;;;;;;5051345;28;20032;-75
2022/01/24 09:25:15;;;;;;;8.18;1.23;;;;;;;;;;5051399;28;20017;-74
2022/01/24 09:27:42;;;;;;;6.50;1.38;;;;;;;;;;5052623;28;20027;-74
2022/01/24 09:30:10;;;;;;;5.82;1.10;;;;;;;;;;5052521;28;20032;-74
2022/01/24 09:32:38;;;;;;;5.57;1.20;;;;;;;;;;5052618;28;20025;-76
2022/01/24 09:35:06;;;;;;;5.50;1.38;;;;;;;;;;5052600;28;20087;-76
2022/01/24 09:37:33;;;;;;;5.80;1.15;;;;;;;;;;5051416;28;20079;-75
2022/01/24 09:40:00;;;;;;;6.05;1.13;;;;;;;;;;5055156;28;20048;-75
2022/01/24 09:42:28;;;;;;;5.63;1.10;;;;;;;;;;5056359;28;20036;-75
2022/01/24 09:44:56;;;;;;;6.13;1.40;;;;;;;;;;5056233;28;20087;-75
2022/01/24 09:47:23;;;;;;;4.25;1.00;;;;;;;;;;5056376;28;20025;-75
2022/01/24 09:49:51;;;;;;;6.88;1.30;;;;;;;;;;5056274;28;20100;-74
2022/01/24 09:52:18;;;;;;;6.22;1.13;;;;;;;;;;5056158;28;20060;-74
2022/01/24 09:54:45;;;;;;;7.80;1.67;;;;;;;;;;5056189;28;20108;-74
2022/01/24 09:57:12;;;;;;;6.90;1.17;;;;;;;;;;5056066;28;20029;-74
2022/01/24 09:59:40;;;;;;;5.45;1.25;;;;;;;;;;5054786;28;20024;-74
2022/01/24 10:02:07;;;;;;;9.02;1.23;;;;;;;;;;5056046;28;20025;-74
2022/01/24 10:04:34;;;;;;;8.52;1.23;;;;;;;;;;5055843;28;20049;-74
2022/01/24 10:07:04;;;;;;;7.45;1.40;;;;;;;;;;5056043;28;20023;-73
2022/01/24 10:09:36;;;;;;;9.30;1.45;;;;;;;;;;5054465;28;20029;-74
2022/01/24 10:12:12;;;;;;;8.50;1.08;;;;;;;;;;5055700;28;20032;-73
2022/01/24 10:17:26;;;;;;;6.85;1.42;;;;;;;;;;5055788;28;20504;-74
2022/01/24 10:19:53;;;;;;;7.60;1.23;;;;;;;;;;5055570;28;20021;-75
2022/01/24 10:22:25;;;;;;;7.47;1.40;;;;;;;;;;5054223;28;20482;-74
2022/01/24 10:24:56;;;;;;;7.15;1.42;;;;;;;;;;5054212;28;20372;-75
2022/01/24 10:27:24;;;;;;;7.95;1.45;;;;;;;;;;5055546;28;20048;-75
2022/01/24 10:30:05;;;;;;;7.20;1.10;;;;;;;;;;5055522;28;20024;-74
2022/01/24 10:32:39;;;;;;;9.23;1.45;;;;;;;;;;5055670;28;20025;-75
2022/01/24 10:35:25;;;;;;;9.55;1.75;;;;;;;;;;5054155;28;20520;-75
2022/01/24 10:38:12;;;;;;;13.60;1.60;;;;;;;;;;5055424;28;20102;-74
2022/01/24 10:43:42;;;;;;;8.73;1.50;;;;;;;;;;5073094;28;20103;-75
2022/01/24 10:46:10;;;;;;;8.40;1.30;;;;;;;;;;5053701;28;20120;-74
2022/01/24 10:48:41;;;;;;;5.32;0.95;;;;;;;;;;5053919;28;20074;-74
2022/01/24 10:51:08;;;;;;;8.43;1.80;;;;;;;;;;5055168;28;20547;-74
2022/01/24 10:53:36;;;;;;;6.85;1.30;;;;;;;;;;5055086;28;20447;-74
2022/01/24 10:56:04;;;;;;;5.70;1.27;;;;;;;;;;5055076;28;20522;-75
2022/01/24 10:58:36;;;;;;;8.00;1.63;;;;;;;;;;5055174;28;20021;-75
2022/01/24 11:01:07;;;;;;;5.93;1.05;;;;;;;;;;5055237;28;20427;-75
2022/01/24 11:03:34;;;;;;;8.52;1.30;;;;;;;;;;5055196;28;20036;-76
2022/01/24 11:06:02;;;;;;;5.97;1.20;;;;;;;;;;5054779;28;20037;-75
2022/01/24 11:08:30;;;;;;;9.77;1.48;;;;;;;;;;5053630;28;20056;-75
2022/01/24 11:10:57;;;;;;;5.82;1.40;;;;;;;;;;5054975;28;20473;-75
2022/01/24 11:13:30;;;;;;;8.38;1.55;;;;;;;;;;5054794;28;20108;-75
2022/01/24 11:16:00;;;;;;;7.32;1.25;;;;;;;;;;5054732;28;20021;-74
2022/01/24 11:18:27;;;;;;;7.68;1.15;;;;;;;;;;5053421;28;20053;-75
2022/01/24 11:21:02;;;;;;;7.50;1.38;;;;;;;;;;5054738;28;20455;-75
2022/01/24 11:23:29;;;;;;;8.70;1.70;;;;;;;;;;5054577;28;20024;-75
2022/01/24 11:26:01;;;;;;;8.00;1.20;;;;;;;;;;5054647;28;20071;-76
2022/01/24 11:28:29;;;;;;;16.88;2.40;;;;;;;;;;5054545;28;20023;-75
2022/01/24 11:31:13;;;;;;;6.95;1.10;;;;;;;;;;5053130;28;20493;-75
2022/01/24 11:33:42;;;;;;;6.32;1.20;;;;;;;;;;5053060;28;20032;-75
2022/01/24 11:36:11;;;;;;;10.48;1.35;;;;;;;;;;5054330;28;20486;-75
2022/01/24 11:38:38;;;;;;;11.80;1.50;;;;;;;;;;5053128;28;20086;-74
2022/01/24 11:41:06;;;;;;;7.50;1.23;;;;;;;;;;5054295;28;20554;-73
2022/01/24 11:43:34;;;;;;;10.07;1.10;;;;;;;;;;5052841;28;20108;-73
2022/01/24 11:46:06;;;;;;;6.93;1.10;;;;;;;;;;5054088;28;20067;-75
2022/01/24 11:48:34;;;;;;;9.25;1.65;;;;;;;;;;5054150;28;20024;-75
2022/01/24 11:51:06;;;;;;;8.65;1.42;;;;;;;;;;5052784;28;20017;-75
2022/01/24 11:53:38;;;;;;;7.90;1.38;;;;;;;;;;5054136;28;20496;-74
2022/01/24 11:56:20;;;;;;;7.38;1.20;;;;;;;;;;5052916;28;20029;-74
2022/01/24 11:58:48;;;;;;;5.00;1.30;;;;;;;;;;5054105;28;20029;-75
2022/01/24 12:01:36;;;;;;;8.45;1.25;;;;;;;;;;5052116;28;20036;-74
2022/01/24 12:04:03;;;;;;;7.97;1.20;;;;;;;;;;5052268;28;20024;-73
2022/01/24 12:06:30;;;;;;;5.60;1.00;;;;;;;;;;5053694;28;20031;-74
2022/01/24 12:09:08;;;;;;;7.13;1.42;;;;;;;;;;5053880;28;20062;-75
2022/01/24 12:11:37;;;;;;;9.93;1.35;;;;;;;;;;5053614;28;20029;-75
2022/01/24 12:14:19;;;;;;;9.90;1.42;;;;;;;;;;5053694;28;20066;-74
2022/01/24 12:16:46;;;;;;;6.93;1.52;;;;;;;;;;5052228;28;20056;-75
2022/01/24 12:19:13;;;;;;;9.95;1.40;;;;;;;;;;5053570;28;20043;-75
2022/01/24 12:21:43;;;;;;;9.38;1.75;;;;;;;;;;5053558;28;20032;-74
2022/01/24 12:24:14;;;;;;;5.97;0.90;;;;;;;;;;5053555;28;20104;-74
2022/01/24 12:26:44;;;;;;;9.25;1.30;;;;;;;;;;5052075;28;20021;-73
2022/01/24 12:29:16;;;;;;;10.82;1.90;;;;;;;;;;5052154;28;20056;-75
2022/01/24 12:31:45;;;;;;;7.80;1.20;;;;;;;;;;5053375;28;20100;-75
2022/01/24 12:34:32;;;;;;;9.52;1.52;;;;;;;;;;5053422;28;20390;-74
2022/01/24 12:37:02;;;;;;;7.43;1.30;;;;;;;;;;5053319;28;20021;-74
2022/01/24 12:39:36;;;;;;;11.10;1.77;;;;;;;;;;5053809;28;20037;-77
2022/01/24 12:42:13;;;;;;;6.97;1.45;;;;;;;;;;5053231;28;20435;-74
2022/01/24 12:47:14;;;;;;;8.32;1.88;;;;;;;;;;5053235;28;20021;-74
2022/01/24 12:49:41;;;;;;;8.63;1.60;;;;;;;;;;5053158;28;20027;-74
2022/01/24 12:52:10;;;;;;;9.98;1.75;;;;;;;;;;5052899;28;20051;-76
2022/01/24 12:54:42;;;;;;;8.15;1.40;;;;;;;;;;5053404;28;20432;-76
2022/01/24 12:57:11;;;;;;;5.85;1.20;;;;;;;;;;5051898;28;20059;-74
2022/01/24 12:59:39;;;;;;;7.45;1.55;;;;;;;;;;5051673;28;20500;-75
2022/01/24 13:02:06;;;;;;;8.63;1.63;;;;;;;;;;5052791;28;20104;-74
2022/01/24 13:04:38;;;;;;;8.07;1.20;;;;;;;;;;5052536;28;20501;-74
2022/01/24 13:07:09;;;;;;;6.85;1.65;;;;;;;;;;5051636;28;20389;-74
2022/01/24 13:09:35;;;;;;;;;;;;;;;;;;5053110;28;20023;-75
2022/01/24 13:12:10;;;;;;;8.73;1.23;;;;;;;;;;5051408;28;19904;-75
2022/01/24 13:14:50;;;;;;;9.52;1.20;;;;;;;;;;5056539;28;20413;-74
2022/01/24 13:23:03;;;;;;;5.38;1.20;;;;;;;;;;5056743;28;20154;-74
2022/01/24 13:25:36;;;;;;;7.70;1.45;;;;;;;;;;5056759;28;20021;-75
2022/01/24 13:28:05;;;;;;;7.68;1.15;;;;;;;;;;5056782;28;20025;-76
2022/01/24 13:30:34;;;;;;;11.00;1.25;;;;;;;;;;5056909;28;20135;-75
2022/01/24 13:33:05;;;;;;;6.47;1.42;;;;;;;;;;5055406;28;20028;-75
2022/01/24 13:35:34;;;;;;;6.88;1.30;;;;;;;;;;5055505;28;20021;-76
2022/01/24 13:38:04;;;;;;;6.53;1.00;;;;;;;;;;5056748;28;20531;-75
2022/01/24 13:40:32;;;;;;;9.48;1.20;;;;;;;;;;5055483;28;20029;-74
2022/01/24 13:43:00;;;;;;;9.25;1.10;;;;;;;;;;5056360;28;20032;-74
2022/01/24 13:45:27;;;;;;;9.93;1.13;;;;;;;;;;5055237;28;20025;-75
2022/01/24 13:47:58;;;;;;;7.50;1.27;;;;;;;;;;5055137;28;20371;-76
2022/01/24 13:50:26;;;;;;;9.27;1.20;;;;;;;;;;5056370;28;20028;-75
2022/01/24 13:52:54;;;;;;;9.93;2.17;;;;;;;;;;5055123;28;20024;-76
2022/01/24 13:55:25;;;;;;;7.60;1.88;;;;;;;;;;5056555;28;20032;-76
2022/01/24 13:57:54;;;;;;;9.05;1.60;;;;;;;;;;5055181;28;20021;-75
2022/01/24 14:00:28;;;;;;;5.88;0.90;;;;;;;;;;5056317;28;20106;-74
2022/01/24 14:03:11;;;;;;;10.90;1.95;;;;;;;;;;5056168;28;20489;-74
2022/01/24 14:05:39;;;;;;;4.72;1.00;;;;;;;;;;5055977;28;20041;-74
2022/01/24 14:08:16;;;;;;;9.65;1.70;;;;;;;;;;5056048;28;20021;-76
2022/01/24 14:10:44;;;;;;;6.65;1.10;;;;;;;;;;5054760;28;20032;-75
2022/01/24 14:13:12;;;;;;;7.68;1.25;;;;;;;;;;5055939;28;20382;-76
2022/01/24 14:15:56;;;;;;;7.78;1.40;;;;;;;;;;5055913;28;20029;-75
2022/01/24 14:18:28;;;;;;;7.80;1.20;;;;;;;;;;5055907;28;20021;-76
2022/01/24 14:20:57;;;;;;;5.72;1.20;;;;;;;;;;5055996;28;20017;-74
2022/01/24 14:23:25;;;;;;;10.32;1.30;;;;;;;;;;5055306;28;20032;-75
2022/01/24 14:25:53;;;;;;;10.02;1.50;;;;;;;;;;5054466;28;20017;-75
2022/01/24 14:28:23;;;;;;;8.70;1.67;;;;;;;;;;5055608;28;20028;-75
2022/01/24 14:30:54;;;;;;;9.40;1.45;;;;;;;;;;5055723;28;20045;-75
2022/01/24 14:33:23;;;;;;;10.07;1.52;;;;;;;;;;5055650;28;20017;-75
2022/01/24 14:35:50;;;;;;;7.65;1.67;;;;;;;;;;5055597;28;20079;-73
2022/01/24 14:38:31;;;;;;;10.02;1.50;;;;;;;;;;5054879;28;20040;-74
2022/01/24 14:41:01;;;;;;;9.50;1.25;;;;;;;;;;5055316;28;20108;-75
2022/01/24 14:46:16;;;;;;;10.07;1.25;;;;;;;;;;5055640;28;20397;-75
2022/01/24 14:48:48;;;;;;;9.88;1.40;;;;;;;;;;5055337;28;20021;-74
2022/01/24 14:51:17;;;;;;;6.90;1.27;;;;;;;;;;5055175;28;20090;-74
2022/01/24 14:53:44;;;;;;;6.03;1.02;;;;;;;;;;5053881;28;20043;-76
2022/01/24 14:56:14;;;;;;;7.75;1.33;;;;;;;;;;5053842;28;20031;-75
2022/01/24 14:58:42;;;;;;;6.00;0.93;;;;;;;;;;5054230;28;20481;-74
2022/01/24 15:01:09;;;;;;;7.38;1.45;;;;;;;;;;5053880;28;20123;-74
2022/01/24 15:03:37;;;;;;;6.22;1.20;;;;;;;;;;5053542;28;20033;-75
2022/01/24 15:06:05;;;;;;;5.45;1.13;;;;;;;;;;5053507;28;20049;-75
2022/01/24 15:08:32;;;;;;;7.13;1.20;;;;;;;;;;5054982;28;20025;-75
2022/01/24 15:11:00;;;;;;;8.45;1.23;;;;;;;;;;5054802;28;20025;-75
2022/01/24 15:13:34;;;;;;;10.10;1.50;;;;;;;;;;5054774;28;20021;-75
2022/01/24 15:16:13;;;;;;;9.75;1.73;;;;;;;;;;5053493;28;20087;-75
2022/01/24 15:26:54;;;;;;;5.43;1.00;;;;;;;;;;5054635;28;20021;-76
2022/01/24 15:29:21;;;;;;;8.05;1.83;;;;;;;;;;5054601;28;20021;-76
2022/01/24 15:31:49;;;;;;;6.00;1.10;;;;;;;;;;5054476;28;20482;-75
2022/01/24 15:34:19;;;;;;;5.93;1.05;;;;;;;;;;5054359;28;20025;-75
2022/01/24 15:36:47;;;;;;;8.63;1.50;;;;;;;;;;5053460;28;20013;-75
2022/01/24 15:39:15;;;;;;;7.55;0.98;;;;;;;;;;5053042;28;20446;-74
2022/01/24 15:41:50;;;;;;;5.60;1.42;;;;;;;;;;5054315;28;20445;-74
2022/01/24 15:47:00;;;;;;;6.05;1.25;;;;;;;;;;5054155;28;20029;-75
2022/01/24 15:49:27;;;;;;;9.52;1.52;;;;;;;;;;5052777;28;20179;-75
2022/01/24 15:51:54;;;;;;;6.75;1.10;;;;;;;;;;5054045;28;20196;-75
2022/01/24 15:54:24;;;;;;;6.05;1.13;;;;;;;;;;5053972;28;20033;-74
2022/01/24 15:59:36;;;;;;;6.93;1.15;;;;;;;;;;5053897;28;20114;-74
2022/01/24 16:02:04;;;;;;;8.30;1.23;;;;;;;;;;5053839;28;20025;-74
2022/01/24 16:04:31;;;;;;;7.45;1.38;;;;;;;;;;5053678;28;20124;-75
2022/01/24 16:06:58;;;;;;;7.47;1.00;;;;;;;;;;5053855;28;20013;-76
2022/01/24 16:09:25;;;;;;;6.65;1.45;;;;;;;;;;5053681;28;20028;-75
2022/01/24 16:11:55;;;;;;;6.55;1.30;;;;;;;;;;5053602;28;20029;-75
2022/01/24 16:14:22;;;;;;;8.32;1.55;;;;;;;;;;5052435;28;20025;-76
2022/01/24 16:16:49;;;;;;;7.55;1.10;;;;;;;;;;5053650;28;20095;-75
2022/01/24 16:19:19;;;;;;;11.50;1.70;;;;;;;;;;5053524;28;20382;-75
2022/01/24 16:22:00;;;;;;;9.23;1.80;;;;;;;;;;5053597;28;20047;-76
2022/01/24 16:26:58;;;;;;;8.27;1.25;;;;;;;;;;5053538;28;20033;-75
2022/01/24 16:29:25;;;;;;;8.25;1.60;;;;;;;;;;5053421;28;20025;-75
2022/01/24 16:31:54;;;;;;;5.78;1.48;;;;;;;;;;5052078;28;20032;-75
2022/01/24 16:34:21;;;;;;;9.88;1.45;;;;;;;;;;5052116;28;20147;-76
2022/01/24 16:36:49;;;;;;;7.78;1.67;;;;;;;;;;5052029;28;20021;-75
2022/01/24 16:39:19;;;;;;;8.85;1.40;;;;;;;;;;5051842;28;20017;-74
2022/01/24 16:41:56;;;;;;;8.17;1.50;;;;;;;;;;5053207;28;20100;-75
2022/01/24 16:47:10;;;;;;;7.75;1.63;;;;;;;;;;5052995;28;20025;-75
2022/01/24 16:49:42;;;;;;;7.47;1.60;;;;;;;;;;5053116;28;20016;-74
2022/01/24 16:52:11;;;;;;;9.13;1.48;;;;;;;;;;5051832;28;20020;-74
2022/01/24 16:54:41;;;;;;;6.50;1.52;;;;;;;;;;5053056;28;20476;-75
2022/01/24 16:57:09;;;;;;;9.35;1.55;;;;;;;;;;5051799;28;20021;-75
2022/01/24 16:59:37;;;;;;;9.65;1.30;;;;;;;;;;5053152;28;20021;-76
2022/01/24 17:02:07;;;;;;;7.95;1.40;;;;;;;;;;5052981;28;20050;-75
2022/01/24 17:04:34;;;;;;;5.63;1.33;;;;;;;;;;5052799;28;20175;-75
2022/01/24 17:07:04;;;;;;;7.25;1.80;;;;;;;;;;5053013;28;20021;-75
2022/01/24 17:09:31;;;;;;;6.38;1.33;;;;;;;;;;5052991;28;20017;-76
2022/01/24 17:12:01;;;;;;;6.78;1.75;;;;;;;;;;5051640;28;20477;-76
2022/01/24 17:14:32;;;;;;;5.97;1.35;;;;;;;;;;5051611;28;20017;-75